Time;durP1;ratioP1;P1;durP2;ratioP2;P2;SDS_P1;SDS_P2;PMS_P1;PMS_P2;Temp;Humidity;BMP_temperature;BMP_pressure;BME280_temperature;BME280_humidity;BME280_pressure;Samples;Min_cycle;Max_cycle;Signal;HPM_P1;HPM_P2
2022/01/02 11:05:23;;;;;;;11.50;8.47;;;6.50;99.90;;;;;;5678327;23;20321;-78
2022/01/02 11:07:58;;;;;;;11.13;8.53;;;6.50;99.90;;;;;;4954742;29;20293;-76
2022/01/02 11:10:24;;;;;;;10.23;9.00;;;6.50;99.90;;;;;;4954613;29;20194;-77
2022/01/02 11:12:52;;;;;;;15.37;10.30;;;6.60;99.90;;;;;;4955176;29;20171;-76
2022/01/02 11:15:20;;;;;;;12.50;9.47;;;6.60;99.90;;;;;;4956961;29;20195;-77
2022/01/02 11:17:45;;;;;;;12.37;9.67;;;6.50;99.90;;;;;;4963628;29;20182;-76
2022/01/02 11:20:28;;;;;;;13.80;9.77;;;6.40;99.90;;;;;;4961127;29;20200;-76
2022/01/02 11:23:22;;;;;;;12.13;9.63;;;6.50;99.90;;;;;;4968234;29;20209;-76
2022/01/02 11:26:10;;;;;;;14.77;10.10;;;6.70;99.90;;;;;;4960365;29;20239;-76
2022/01/02 11:28:40;;;;;;;13.27;10.10;;;6.80;99.90;;;;;;4934925;29;20223;-76
2022/01/02 11:31:09;;;;;;;15.00;11.13;;;6.90;99.90;;;;;;4939715;29;20175;-76
2022/01/02 11:33:39;;;;;;;15.20;10.80;;;6.90;99.90;;;;;;4942987;29;20196;-76
2022/01/02 11:36:30;;;;;;;13.37;10.73;;;7.00;99.90;;;;;;4939892;29;20255;-76
2022/01/02 11:39:05;;;;;;;12.93;10.40;;;7.10;99.90;;;;;;4950019;29;20167;-76
2022/01/02 11:41:52;;;;;;;14.70;11.00;;;7.30;99.90;;;;;;4937281;29;20204;-76
2022/01/02 11:44:20;;;;;;;12.37;10.47;;;7.40;99.90;;;;;;4948685;29;20190;-77
2022/01/02 11:46:56;;;;;;;13.30;10.60;;;7.50;99.90;;;;;;4951827;29;20248;-76
2022/01/02 11:49:26;;;;;;;12.83;10.40;;;7.60;99.90;;;;;;4938077;29;20214;-76
2022/01/02 11:52:02;;;;;;;13.10;10.40;;;7.40;99.90;;;;;;4932445;29;20195;-75
2022/01/02 11:54:28;;;;;;;13.93;11.00;;;7.30;99.90;;;;;;4931319;29;20183;-75
2022/01/02 11:56:55;;;;;;;14.33;11.30;;;7.30;99.90;;;;;;4946081;29;20185;-77
2022/01/02 11:59:38;;;;;;;13.63;11.00;;;7.40;99.90;;;;;;4933910;29;20183;-76
2022/01/02 12:02:23;;;;;;;13.73;10.93;;;7.50;99.90;;;;;;4916512;29;20228;-76
2022/01/02 12:04:58;;;;;;;12.07;10.23;;;7.50;99.90;;;;;;4930427;29;20672;-76
2022/01/02 12:07:36;;;;;;;14.00;9.70;;;7.60;99.90;;;;;;4933684;29;20280;-79
2022/01/02 12:10:14;;;;;;;27.93;22.03;;;7.80;99.90;;;;;;4934125;29;20221;-76
2022/01/02 12:13:26;;;;;;;25.33;19.60;;;7.70;99.90;;;;;;4934047;29;20263;-75
2022/01/02 12:15:52;;;;;;;15.83;11.93;;;7.70;99.90;;;;;;4933230;29;20206;-76
2022/01/02 12:18:31;;;;;;;15.80;12.03;;;7.90;99.90;;;;;;4934141;29;20199;-76
2022/01/02 12:20:57;;;;;;;13.30;10.10;;;8.00;99.90;;;;;;4933340;29;20187;-76
2022/01/02 12:23:34;;;;;;;11.33;9.40;;;8.30;99.90;;;;;;4921061;29;20678;-76
2022/01/02 12:26:39;;;;;;;13.13;10.63;;;8.70;99.90;;;;;;4920436;29;20235;-76
2022/01/02 12:29:12;;;;;;;12.30;10.17;;;10.00;1.00;;;;;;4875174;29;20632;-77
2022/01/02 12:31:41;;;;;;;16.03;11.17;;;11.30;1.00;;;;;;4869659;29;20726;-77
2022/01/02 12:34:09;;;;;;;15.33;9.40;;;11.00;1.00;;;;;;4890765;29;20187;-76
2022/01/02 12:36:36;;;;;;;10.90;8.43;;;10.80;1.00;;;;;;4933552;29;20199;-77
2022/01/02 12:39:05;;;;;;;38.23;31.00;;;10.60;1.00;;;;;;4933700;29;20182;-76
2022/01/02 12:41:36;;;;;;;27.50;21.43;;;10.50;1.00;;;;;;4933619;29;20703;-76
2022/01/02 12:44:09;;;;;;;13.03;9.57;;;10.60;1.00;;;;;;4929042;29;20192;-77
2022/01/02 12:46:39;;;;;;;13.43;10.83;;;10.70;1.00;;;;;;4908172;29;20561;-76
2022/01/02 12:49:26;;;;;;;10.53;8.37;;;12.30;99.90;;;;;;4933479;29;20710;-76
2022/01/02 12:51:54;;;;;;;7.47;6.00;;;13.40;1.00;;;;;;4932927;29;20191;-76
2022/01/02 12:54:23;;;;;;;7.73;5.97;;;14.00;1.00;;;;;;4934876;29;20186;-78
2022/01/02 12:56:54;;;;;;;8.73;5.90;;;14.10;1.00;;;;;;4925760;29;20217;-77
2022/01/02 12:59:32;;;;;;;6.97;6.27;;;14.40;99.90;;;;;;4918162;29;20187;-76
2022/01/02 13:02:10;;;;;;;8.73;6.57;;;13.90;99.90;;;;;;4930222;29;20802;-77
2022/01/02 13:04:39;;;;;;;9.57;8.67;;;14.90;1.00;;;;;;4923393;29;20713;-76
2022/01/02 13:07:21;;;;;;;4.73;3.60;;;15.50;60.90;;;;;;4928869;29;20252;-76
2022/01/02 13:09:51;;;;;;;5.73;3.10;;;15.30;1.00;;;;;;4925970;29;20187;-77
2022/01/02 13:12:28;;;;;;;5.10;3.00;;;15.30;1.00;;;;;;4937324;29;20183;-76
2022/01/02 13:14:59;;;;;;;5.40;3.23;;;14.30;1.00;;;;;;4936699;29;20378;-76
2022/01/02 13:17:30;;;;;;;4.73;3.03;;;13.90;90.10;;;;;;4937183;29;20179;-75
2022/01/02 13:20:09;;;;;;;3.87;3.10;;;13.40;1.00;;;;;;4937352;29;20223;-75
2022/01/02 13:22:47;;;;;;;3.67;3.00;;;13.60;46.50;;;;;;4937151;29;20179;-76
2022/01/02 13:25:32;;;;;;;4.60;3.40;;;14.30;99.90;;;;;;4936197;29;20234;-77
2022/01/02 13:28:06;;;;;;;4.43;3.50;;;14.30;99.90;;;;;;4935918;29;20226;-76
2022/01/02 13:30:38;;;;;;;3.73;2.87;;;13.90;99.90;;;;;;4936375;29;20179;-75
2022/01/02 13:33:17;;;;;;;4.23;2.87;;;14.00;30.80;;;;;;4934057;29;20182;-77
2022/01/02 13:35:43;;;;;;;4.80;3.20;;;14.60;1.00;;;;;;4916773;29;20770;-76
2022/01/02 13:38:09;;;;;;;5.43;3.30;;;15.10;1.00;;;;;;4917177;29;20224;-74
2022/01/02 13:40:36;;;;;;;3.50;2.90;;;15.40;1.00;;;;;;4916994;29;20191;-75
2022/01/02 13:43:10;;;;;;;4.13;3.23;;;15.50;1.00;;;;;;4917357;29;20191;-77
2022/01/02 13:45:42;;;;;;;3.40;2.77;;;16.10;1.00;;;;;;4916419;29;20213;-75
2022/01/02 13:48:09;;;;;;;4.83;2.63;;;16.10;1.00;;;;;;4916926;29;20571;-77
2022/01/02 13:50:41;;;;;;;7.63;2.97;;;16.00;1.00;;;;;;4916700;29;20205;-76
2022/01/02 13:53:28;;;;;;;6.07;3.03;;;15.60;1.00;;;;;;4923365;29;20186;-77
2022/01/02 13:56:06;;;;;;;4.20;2.90;;;16.20;1.00;;;;;;4935145;29;20206;-77
2022/01/02 13:58:41;;;;;;;6.47;3.10;;;15.50;1.00;;;;;;4935859;29;20261;-76
2022/01/02 14:01:15;;;;;;;5.70;2.80;;;15.40;1.00;;;;;;4935682;29;20211;-77
2022/01/02 14:03:42;;;;;;;3.60;2.70;;;15.90;1.00;;;;;;4935612;29;20183;-76
2022/01/02 14:06:26;;;;;;;5.00;2.60;;;15.40;1.00;;;;;;4934908;29;20241;-76
2022/01/02 14:08:54;;;;;;;5.93;2.60;;;15.20;1.00;;;;;;4935661;29;20223;-76
2022/01/02 14:11:28;;;;;;;4.43;2.50;;;15.00;1.00;;;;;;4935399;29;20203;-76
2022/01/02 14:14:10;;;;;;;4.33;2.53;;;14.80;1.00;;;;;;4935947;29;20255;-76
2022/01/02 14:19:38;;;;;;;4.60;2.80;;;15.00;1.00;;;;;;4935824;29;20215;-74
2022/01/02 14:22:05;;;;;;;2.73;2.20;;;15.50;1.00;;;;;;4935450;29;20206;-74
2022/01/02 14:24:31;;;;;;;3.83;2.40;;;15.20;1.00;;;;;;4934649;29;20187;-74
2022/01/02 14:26:57;;;;;;;3.93;3.40;;;14.90;1.00;;;;;;4935363;29;20179;-75
2022/01/02 14:29:24;;;;;;;6.10;4.00;;;15.40;1.00;;;;;;4935321;29;20211;-75
2022/01/02 14:31:50;;;;;;;5.87;3.33;;;15.30;1.00;;;;;;4936083;29;20207;-75
2022/01/02 14:34:16;;;;;;;5.10;2.83;;;14.70;1.00;;;;;;4937320;29;20187;-76
2022/01/02 14:36:42;;;;;;;5.40;2.80;;;14.50;1.00;;;;;;4935740;29;20198;-75
2022/01/02 14:39:08;;;;;;;6.77;2.80;;;14.40;1.00;;;;;;4936626;29;20179;-76
2022/01/02 14:41:39;;;;;;;4.37;2.40;;;14.00;1.00;;;;;;4935256;29;20187;-75
2022/01/02 14:44:06;;;;;;;4.73;2.50;;;13.90;1.00;;;;;;4935044;29;20334;-74
2022/01/02 14:46:31;;;;;;;4.37;2.73;;;13.80;1.00;;;;;;4934880;29;20286;-74
2022/01/02 14:48:57;;;;;;;4.13;2.47;;;13.70;1.00;;;;;;4934735;29;20293;-75
2022/01/02 14:51:23;;;;;;;4.97;2.87;;;13.90;1.00;;;;;;4934654;29;20239;-75
2022/01/02 14:53:48;;;;;;;4.10;2.50;;;14.10;1.00;;;;;;4935105;29;20273;-76
2022/01/02 14:56:14;;;;;;;4.00;2.23;;;13.80;1.00;;;;;;4934871;29;20728;-76
2022/01/02 14:58:39;;;;;;;4.03;2.30;;;13.40;1.00;;;;;;4935002;29;20194;-75
2022/01/02 15:01:06;;;;;;;3.50;2.37;;;13.10;20.90;;;;;;4920847;29;20236;-76
2022/01/02 15:03:33;;;;;;;6.77;2.63;;;13.00;39.80;;;;;;4934769;29;20204;-75
2022/01/02 15:05:58;;;;;;;5.37;2.30;;;12.90;99.90;;;;;;4934076;29;20203;-76
2022/01/02 15:08:24;;;;;;;5.43;3.73;;;12.90;99.90;;;;;;4934874;29;20217;-75
2022/01/02 15:10:49;;;;;;;12.03;7.77;;;12.90;99.90;;;;;;4934869;29;20494;-76
2022/01/02 15:13:15;;;;;;;33.20;20.87;;;12.80;99.90;;;;;;4934811;29;20194;-74
2022/01/02 15:15:44;;;;;;;17.20;12.93;;;12.80;99.90;;;;;;4933745;29;20695;-75
2022/01/02 15:18:10;;;;;;;9.47;6.70;;;12.80;99.90;;;;;;4933941;29;20656;-74
2022/01/02 15:20:36;;;;;;;12.03;9.10;;;12.70;99.90;;;;;;4934463;29;20183;-75
2022/01/02 15:23:01;;;;;;;8.63;3.57;;;12.60;99.90;;;;;;4934481;29;20194;-75
2022/01/02 15:25:28;;;;;;;4.60;2.43;;;12.50;99.90;;;;;;4933601;29;20199;-75
2022/01/02 15:27:54;;;;;;;5.90;2.87;;;12.50;99.90;;;;;;4934018;29;20671;-76
2022/01/02 15:30:20;;;;;;;4.57;3.40;;;12.40;99.90;;;;;;4934069;29;20207;-75
2022/01/02 15:32:46;;;;;;;3.20;2.90;;;12.40;99.90;;;;;;4919778;29;20195;-75
2022/01/02 15:35:15;;;;;;;5.60;2.80;;;12.30;99.90;;;;;;4920995;29;20704;-75
2022/01/02 15:37:43;;;;;;;5.07;2.83;;;12.20;99.90;;;;;;4917482;29;20192;-75
2022/01/02 15:40:09;;;;;;;4.57;2.60;;;12.40;99.90;;;;;;4923817;29;20953;-75
2022/01/02 15:42:35;;;;;;;3.17;2.40;;;12.40;99.90;;;;;;4914401;29;20183;-75
2022/01/02 15:45:01;;;;;;;5.77;3.00;;;12.30;99.90;;;;;;4913662;29;20206;-75
2022/01/02 15:47:26;;;;;;;17.13;9.20;;;12.40;99.90;;;;;;4914300;29;20184;-75
2022/01/02 15:49:52;;;;;;;13.63;8.83;;;12.20;99.90;;;;;;4914061;29;20308;-76
2022/01/02 15:52:17;;;;;;;5.40;3.43;;;12.30;99.90;;;;;;4914516;29;20266;-75
2022/01/02 15:54:43;;;;;;;5.97;4.10;;;12.30;99.90;;;;;;4914221;29;20247;-76
2022/01/02 15:57:08;;;;;;;5.80;3.10;;;12.20;99.90;;;;;;4930184;29;20183;-75
2022/01/02 15:59:34;;;;;;;5.97;2.90;;;12.20;99.90;;;;;;4933694;29;20560;-76
2022/01/02 16:01:59;;;;;;;5.33;2.47;;;12.00;99.90;;;;;;4928763;29;20182;-76
2022/01/02 16:04:25;;;;;;;4.07;2.73;;;11.80;1.00;;;;;;4924117;29;20171;-76
2022/01/02 16:06:51;;;;;;;5.17;3.00;;;11.70;1.00;;;;;;4926324;29;20568;-77
2022/01/02 16:09:16;;;;;;;6.50;2.50;;;11.80;1.00;;;;;;4930852;29;20215;-75
2022/01/02 16:11:42;;;;;;;8.73;2.70;;;11.80;1.00;;;;;;4929132;29;20191;-76
2022/01/02 16:14:08;;;;;;;5.10;2.77;;;11.60;1.00;;;;;;4930005;29;20191;-76
2022/01/02 16:16:34;;;;;;;6.67;5.87;;;11.50;1.00;;;;;;4928825;29;20202;-76
2022/01/02 16:19:00;;;;;;;10.90;7.90;;;11.50;1.00;;;;;;4924290;29;20187;-75
2022/01/02 16:21:26;;;;;;;5.33;3.57;;;11.50;1.00;;;;;;4924766;29;20329;-76
2022/01/02 16:23:54;;;;;;;6.97;3.10;;;11.70;1.00;;;;;;4930563;29;20190;-76
2022/01/02 16:26:20;;;;;;;5.03;2.57;;;11.80;1.00;;;;;;4930449;29;20199;-76
2022/01/02 16:28:46;;;;;;;3.43;2.83;;;11.60;1.00;;;;;;4929303;29;20701;-75
2022/01/02 16:31:15;;;;;;;4.40;3.40;;;11.60;1.00;;;;;;4935660;29;20182;-76
2022/01/02 16:33:41;;;;;;;5.93;3.73;;;11.50;1.00;;;;;;4931355;29;20196;-76
2022/01/02 16:36:07;;;;;;;5.60;2.90;;;11.50;1.00;;;;;;4928262;29;20273;-74
2022/01/02 16:38:32;;;;;;;4.63;3.03;;;11.40;1.00;;;;;;4937660;29;20624;-75
2022/01/02 16:41:01;;;;;;;5.90;2.77;;;11.30;1.00;;;;;;4938400;29;20817;-75
2022/01/02 16:43:26;;;;;;;3.10;2.70;;;11.20;99.90;;;;;;4933364;29;20247;-76
2022/01/02 16:45:53;;;;;;;7.03;3.10;;;11.10;99.90;;;;;;4927043;29;20667;-75
2022/01/02 16:48:18;;;;;;;4.53;2.60;;;11.00;1.00;;;;;;4937025;29;20543;-74
2022/01/02 16:50:44;;;;;;;4.40;2.90;;;10.90;1.00;;;;;;4936666;29;20183;-73
2022/01/02 16:53:14;;;;;;;4.87;3.53;;;10.90;1.00;;;;;;4923419;29;20270;-76
2022/01/02 16:55:40;;;;;;;4.90;3.20;;;10.90;1.00;;;;;;4916787;29;20203;-73
2022/01/02 16:58:07;;;;;;;3.73;2.73;;;10.70;1.00;;;;;;4917419;29;20176;-73
2022/01/02 17:00:33;;;;;;;5.83;3.10;;;10.40;1.00;;;;;;4933506;29;20187;-74
2022/01/02 17:03:02;;;;;;;3.57;2.90;;;10.20;1.00;;;;;;4928555;29;20507;-73
2022/01/02 17:05:29;;;;;;;5.00;3.40;;;9.90;99.90;;;;;;4931503;29;20195;-74
2022/01/02 17:07:55;;;;;;;6.23;3.10;;;9.60;1.00;;;;;;4935547;29;20289;-73
2022/01/02 17:10:21;;;;;;;4.23;2.77;;;9.40;99.90;;;;;;4935488;29;20207;-73
2022/01/02 17:12:47;;;;;;;5.00;2.80;;;9.30;1.00;;;;;;4935361;29;20261;-73
2022/01/02 17:15:13;;;;;;;4.03;2.83;;;9.20;1.00;;;;;;4923951;29;20699;-73
2022/01/02 17:17:43;;;;;;;4.03;3.10;;;9.20;1.00;;;;;;4933158;29;20182;-74
2022/01/02 17:20:10;;;;;;;5.70;3.00;;;9.10;1.00;;;;;;4920366;29;20675;-73
2022/01/02 17:22:38;;;;;;;4.63;3.00;;;9.20;1.00;;;;;;4916092;29;20190;-73
2022/01/02 17:25:08;;;;;;;7.23;2.93;;;9.30;1.00;;;;;;4915156;29;20629;-74
2022/01/02 17:27:35;;;;;;;5.30;2.70;;;9.30;1.00;;;;;;4915778;29;20187;-75
2022/01/02 17:30:02;;;;;;;6.43;3.57;;;9.20;1.00;;;;;;4915630;29;20328;-74
2022/01/02 17:32:27;;;;;;;5.53;3.67;;;8.70;99.90;;;;;;4922227;29;20265;-75
2022/01/02 17:37:32;;;;;;;10.53;3.40;;;7.60;1.00;;;;;;4912478;23;1032093;-76
2022/01/02 17:39:57;;;;;;;4.80;2.90;;;7.20;1.00;;;;;;4933284;29;20183;-77
2022/01/02 17:42:23;;;;;;;6.80;2.83;;;7.00;1.00;;;;;;4936518;29;20183;-77
2022/01/02 17:44:48;;;;;;;7.93;3.67;;;7.00;1.00;;;;;;4935765;29;20393;-78
2022/01/02 17:47:15;;;;;;;10.57;3.40;;;6.90;1.00;;;;;;4936298;29;20183;-77
2022/01/02 17:49:42;;;;;;;5.33;3.13;;;6.80;1.00;;;;;;4935422;29;20230;-77
2022/01/02 17:52:08;;;;;;;6.87;3.40;;;6.80;1.00;;;;;;4935823;29;20176;-75
2022/01/02 17:54:35;;;;;;;5.00;3.00;;;6.70;1.00;;;;;;4935307;29;20226;-76
2022/01/02 17:57:01;;;;;;;4.20;2.73;;;6.60;1.00;;;;;;4936108;29;20187;-75
2022/01/02 17:59:28;;;;;;;6.40;3.30;;;6.30;1.00;;;;;;4929959;29;20187;-76
2022/01/02 18:01:54;;;;;;;3.53;3.00;;;6.20;99.90;;;;;;4929031;29;20190;-76
2022/01/02 18:04:21;;;;;;;5.37;3.23;;;6.10;53.90;;;;;;4935419;29;20766;-76
2022/01/02 18:06:47;;;;;;;5.77;3.23;;;5.80;99.90;;;;;;4935990;29;20175;-75
2022/01/02 18:09:23;;;;;;;6.07;4.47;;;5.60;99.90;;;;;;4935758;29;20234;-75
2022/01/02 18:11:49;;;;;;;8.43;4.63;;;5.60;99.90;;;;;;4936091;29;20651;-76
2022/01/02 18:14:16;;;;;;;8.83;5.17;;;5.70;99.90;;;;;;4935726;29;20195;-75
2022/01/02 18:16:41;;;;;;;6.33;4.50;;;5.90;99.90;;;;;;4925147;29;20188;-75
2022/01/02 18:19:07;;;;;;;9.80;4.70;;;6.20;99.90;;;;;;4916216;29;20207;-75
2022/01/02 18:21:35;;;;;;;11.53;4.73;;;6.70;99.90;;;;;;4916377;29;20267;-75
2022/01/02 18:24:00;;;;;;;8.23;4.80;;;7.00;99.90;;;;;;4924876;29;20191;-75
2022/01/02 18:26:27;;;;;;;9.90;4.93;;;7.60;26.00;;;;;;4916180;29;20263;-75
2022/01/02 18:28:55;;;;;;;6.47;4.70;;;7.90;1.00;;;;;;4918776;29;20258;-77
2022/01/02 18:31:22;;;;;;;7.60;4.30;;;7.90;1.00;;;;;;4927023;29;20179;-74
2022/01/02 18:33:48;;;;;;;7.20;4.33;;;7.70;1.00;;;;;;4931255;29;20484;-75
2022/01/02 18:36:14;;;;;;;8.63;4.90;;;7.80;1.00;;;;;;4940385;28;20314;-76
2022/01/02 18:38:40;;;;;;;7.20;4.73;;;7.80;1.00;;;;;;4926453;29;20180;-75
2022/01/02 18:41:06;;;;;;;7.83;5.23;;;7.60;1.00;;;;;;4924990;29;20245;-74
2022/01/02 18:43:32;;;;;;;9.50;5.23;;;7.70;1.00;;;;;;4935270;29;20269;-74
2022/01/02 18:46:01;;;;;;;8.23;4.90;;;8.00;1.00;;;;;;4926124;29;20294;-75
2022/01/02 18:48:26;;;;;;;8.07;5.47;;;7.80;1.00;;;;;;4916947;29;20222;-75
2022/01/02 18:50:52;;;;;;;12.87;5.57;;;7.50;1.00;;;;;;4916114;29;20176;-75
2022/01/02 18:53:18;;;;;;;8.50;5.00;;;7.40;1.00;;;;;;4915812;29;20182;-76
2022/01/02 18:55:43;;;;;;;6.63;5.23;;;7.20;1.00;;;;;;4915565;29;20283;-76
2022/01/02 18:58:09;;;;;;;9.03;5.70;;;7.10;21.20;;;;;;4916445;29;20188;-76
2022/01/02 19:00:35;;;;;;;8.13;5.20;;;7.00;22.90;;;;;;4916046;29;20642;-75
2022/01/02 19:03:00;;;;;;;6.97;5.00;;;6.90;46.10;;;;;;4916122;29;20172;-76
2022/01/02 19:05:26;;;;;;;9.13;5.70;;;7.00;88.70;;;;;;4915666;29;20231;-76
2022/01/02 19:07:51;;;;;;;7.90;4.90;;;7.10;63.60;;;;;;4916230;29;20175;-75
2022/01/02 19:10:17;;;;;;;12.30;5.77;;;7.10;27.80;;;;;;4917578;29;20176;-74
2022/01/02 19:12:43;;;;;;;8.80;5.27;;;7.20;21.80;;;;;;4917645;29;20192;-75
2022/01/02 19:15:10;;;;;;;7.13;5.57;;;6.80;14.40;;;;;;4916326;29;20200;-75
2022/01/02 19:17:37;;;;;;;7.10;5.23;;;6.70;97.00;;;;;;4916904;29;20184;-75
2022/01/02 19:20:04;;;;;;;54.80;22.97;;;6.70;69.30;;;;;;4935324;29;20279;-75
2022/01/02 19:22:30;;;;;;;27.40;12.73;;;6.70;99.90;;;;;;4935409;29;20225;-75
2022/01/02 19:24:56;;;;;;;79.13;29.27;;;6.90;92.80;;;;;;4934955;29;20247;-75
2022/01/02 19:27:22;;;;;;;27.40;12.67;;;6.90;63.50;;;;;;4934858;29;20214;-75
2022/01/02 19:29:49;;;;;;;9.83;6.03;;;6.90;92.30;;;;;;4934572;29;20214;-74
2022/01/02 19:32:16;;;;;;;8.03;4.97;;;6.90;37.00;;;;;;4934793;29;20234;-75
2022/01/02 19:34:41;;;;;;;8.53;4.70;;;6.60;59.10;;;;;;4934003;29;20351;-75
2022/01/02 19:37:07;;;;;;;7.43;4.63;;;6.40;99.90;;;;;;4934289;29;20629;-76
2022/01/02 19:39:33;;;;;;;6.00;4.80;;;6.30;99.90;;;;;;4918188;29;20215;-76
2022/01/02 19:42:00;;;;;;;5.80;4.50;;;6.30;99.90;;;;;;4923307;29;20206;-76
2022/01/02 19:44:26;;;;;;;7.70;5.00;;;6.40;99.90;;;;;;4936329;29;20187;-75
2022/01/02 19:46:51;;;;;;;14.30;10.83;;;6.40;99.90;;;;;;4936814;29;20203;-76
2022/01/02 19:49:19;;;;;;;19.57;11.30;;;6.40;99.90;;;;;;4937466;29;20203;-76
2022/01/02 19:51:44;;;;;;;13.77;9.53;;;6.50;99.90;;;;;;4950564;29;20172;-76
2022/01/02 19:54:10;;;;;;;16.17;9.80;;;6.50;99.90;;;;;;4945719;29;20191;-75
2022/01/02 19:56:36;;;;;;;13.13;8.20;;;6.50;99.90;;;;;;4928071;29;20223;-76
2022/01/02 19:59:02;;;;;;;10.90;7.23;;;6.50;99.90;;;;;;4921728;29;20187;-74
2022/01/02 20:01:29;;;;;;;12.53;6.93;;;6.40;99.90;;;;;;4916128;29;20176;-74
2022/01/02 20:03:54;;;;;;;11.37;6.77;;;6.30;99.90;;;;;;4920458;29;20604;-75
2022/01/02 20:06:20;;;;;;;9.90;6.60;;;6.30;99.90;;;;;;4921772;29;20239;-74
2022/01/02 20:08:45;;;;;;;9.93;5.60;;;6.20;99.90;;;;;;4933943;29;20265;-75
2022/01/02 20:11:14;;;;;;;7.83;5.67;;;6.20;99.90;;;;;;4940762;29;20175;-75
2022/01/02 20:13:41;;;;;;;10.47;5.57;;;6.00;99.90;;;;;;4940530;29;20183;-75
2022/01/02 20:16:10;;;;;;;10.50;5.13;;;6.00;99.90;;;;;;4939694;29;20231;-74
2022/01/02 20:18:37;;;;;;;10.97;6.07;;;5.90;99.90;;;;;;4940309;29;20183;-74
2022/01/02 20:21:04;;;;;;;6.73;6.03;;;5.90;99.90;;;;;;4940142;29;20658;-75
2022/01/02 20:23:30;;;;;;;10.63;6.57;;;5.90;99.90;;;;;;4941203;29;20178;-74
2022/01/02 20:25:56;;;;;;;10.60;7.53;;;6.00;99.90;;;;;;4941001;29;20211;-75
2022/01/02 20:28:21;;;;;;;9.83;6.33;;;6.10;99.90;;;;;;4942433;29;20277;-76
2022/01/02 20:30:50;;;;;;;9.27;6.23;;;6.00;99.90;;;;;;4941013;29;20175;-76
2022/01/02 20:33:16;;;;;;;7.90;6.23;;;6.10;99.90;;;;;;4942128;29;20318;-77
2022/01/02 20:35:42;;;;;;;7.10;6.13;;;6.10;99.90;;;;;;4940342;29;20210;-77
2022/01/02 20:38:08;;;;;;;9.17;5.80;;;6.20;99.90;;;;;;4941135;29;20183;-75
2022/01/02 20:40:33;;;;;;;8.07;5.97;;;6.20;99.90;;;;;;4940669;29;20238;-75
2022/01/02 20:43:01;;;;;;;8.73;5.60;;;6.10;99.90;;;;;;4940575;29;20648;-75
2022/01/02 20:45:28;;;;;;;10.07;6.20;;;6.10;99.90;;;;;;4939632;29;20203;-75
2022/01/02 20:47:54;;;;;;;8.63;6.33;;;6.10;99.90;;;;;;4939802;29;20231;-75
2022/01/02 20:50:19;;;;;;;7.37;5.90;;;6.10;99.90;;;;;;4940112;29;20183;-75
2022/01/02 20:52:46;;;;;;;7.67;6.00;;;6.20;99.90;;;;;;4939759;29;20282;-75
2022/01/02 20:55:16;;;;;;;9.23;5.83;;;6.30;99.90;;;;;;4939407;29;20210;-75
2022/01/02 20:57:43;;;;;;;10.03;5.73;;;6.30;99.90;;;;;;4939967;29;20238;-75
2022/01/02 21:00:12;;;;;;;8.57;6.47;;;6.40;99.90;;;;;;4939834;29;20202;-75
2022/01/02 21:02:37;;;;;;;8.57;5.67;;;6.60;99.90;;;;;;4940152;29;20191;-76
2022/01/02 21:05:04;;;;;;;8.07;6.10;;;6.60;99.90;;;;;;4939450;29;20203;-75
2022/01/02 21:07:30;;;;;;;13.53;7.40;;;6.70;99.90;;;;;;4939562;29;20179;-74
2022/01/02 21:09:56;;;;;;;8.20;5.40;;;6.70;99.90;;;;;;4939860;29;20211;-75
2022/01/02 21:12:22;;;;;;;8.77;5.33;;;6.80;99.90;;;;;;4926740;29;20739;-74
2022/01/02 21:14:47;;;;;;;7.17;4.83;;;7.10;57.30;;;;;;4936698;29;20277;-75
2022/01/02 21:17:13;;;;;;;8.73;5.47;;;7.20;3.00;;;;;;4923988;29;20188;-75
2022/01/02 21:19:38;;;;;;;7.13;4.90;;;7.40;1.00;;;;;;4917832;29;20191;-75
2022/01/02 21:22:04;;;;;;;7.50;4.67;;;7.70;1.00;;;;;;4917838;29;20188;-74
2022/01/02 21:24:30;;;;;;;6.17;4.37;;;7.70;1.00;;;;;;4917214;29;20188;-75
2022/01/02 21:27:00;;;;;;;7.93;4.63;;;7.70;1.00;;;;;;4917625;29;20180;-75
2022/01/02 21:29:30;;;;;;;8.87;4.50;;;7.70;1.00;;;;;;4917470;29;20220;-76
2022/01/02 21:31:57;;;;;;;7.17;4.60;;;7.80;1.00;;;;;;4917599;29;20176;-74
2022/01/02 21:34:23;;;;;;;6.77;4.63;;;8.10;1.00;;;;;;4917131;29;20187;-75
2022/01/02 21:36:49;;;;;;;5.40;3.93;;;8.10;1.00;;;;;;4930806;29;20184;-75
2022/01/02 21:39:15;;;;;;;6.53;4.50;;;8.20;1.00;;;;;;4927440;29;20187;-77
2022/01/02 21:41:50;;;;;;;8.13;4.80;;;8.20;1.00;;;;;;4941031;29;20183;-78
2022/01/02 21:44:17;;;;;;;8.97;4.47;;;8.30;1.00;;;;;;4943712;29;20190;-76
2022/01/02 21:46:43;;;;;;;8.27;4.77;;;8.30;1.00;;;;;;4927170;29;20216;-76
2022/01/02 21:49:08;;;;;;;7.50;4.10;;;8.40;1.00;;;;;;4937453;29;20652;-76
2022/01/02 21:51:34;;;;;;;8.53;4.53;;;8.40;1.00;;;;;;4936670;29;20187;-75
2022/01/02 21:54:04;;;;;;;7.73;4.10;;;8.50;1.00;;;;;;4936495;29;20187;-76
2022/01/02 21:56:29;;;;;;;6.40;4.07;;;8.00;1.00;;;;;;4935678;29;20195;-74
2022/01/02 21:58:55;;;;;;;5.77;3.87;;;8.50;1.00;;;;;;4927593;29;20550;-77
2022/01/02 22:01:23;;;;;;;8.13;3.30;;;8.40;1.00;;;;;;4940556;29;20171;-75
2022/01/02 22:03:55;;;;;;;5.53;3.77;;;8.60;1.00;;;;;;4940199;29;20209;-76
2022/01/02 22:06:23;;;;;;;4.83;3.50;;;8.60;1.00;;;;;;4939702;29;20221;-76
2022/01/02 22:08:49;;;;;;;5.30;3.40;;;8.60;1.00;;;;;;4939627;29;20237;-76
2022/01/02 22:11:15;;;;;;;5.83;3.53;;;8.70;1.00;;;;;;4932725;29;20554;-76
2022/01/02 22:13:42;;;;;;;6.87;3.70;;;8.70;1.00;;;;;;4931692;29;20203;-76
2022/01/02 22:16:08;;;;;;;8.30;3.33;;;8.90;1.00;;;;;;4935375;29;20209;-76
2022/01/02 22:18:34;;;;;;;4.33;3.10;;;8.90;1.00;;;;;;4936125;29;20186;-75
2022/01/02 22:21:01;;;;;;;4.93;2.63;;;8.90;1.00;;;;;;4935597;29;20198;-75
2022/01/02 22:23:27;;;;;;;5.93;3.00;;;9.00;1.00;;;;;;4935703;29;20741;-77
2022/01/02 22:25:56;;;;;;;4.53;3.07;;;9.10;1.00;;;;;;4935002;29;20281;-75
2022/01/02 22:28:26;;;;;;;4.00;2.67;;;9.20;1.00;;;;;;4935973;29;20732;-76
2022/01/02 22:30:53;;;;;;;3.20;2.67;;;9.20;1.00;;;;;;4935474;29;20262;-75
2022/01/02 22:33:21;;;;;;;4.83;3.00;;;9.20;1.00;;;;;;4922308;29;20194;-77
2022/01/02 22:35:48;;;;;;;4.53;3.10;;;9.00;1.00;;;;;;4934767;29;20729;-77
2022/01/02 22:38:15;;;;;;;4.20;3.03;;;9.10;1.00;;;;;;4946791;29;20660;-77
2022/01/02 22:40:41;;;;;;;4.17;2.87;;;9.10;1.00;;;;;;4936424;29;20187;-76
2022/01/02 22:43:08;;;;;;;6.00;3.00;;;9.10;1.00;;;;;;4933337;29;20247;-76
2022/01/02 22:45:39;;;;;;;6.17;2.80;;;9.30;1.00;;;;;;4924649;29;20928;-75
2022/01/02 22:48:07;;;;;;;4.80;2.80;;;9.40;1.00;;;;;;4921741;29;20215;-77
2022/01/02 22:50:36;;;;;;;6.77;2.87;;;9.60;1.00;;;;;;4935479;29;20262;-75
2022/01/02 22:53:03;;;;;;;7.07;2.70;;;9.50;1.00;;;;;;4932553;29;20235;-75
2022/01/02 22:55:30;;;;;;;3.40;2.37;;;9.60;1.00;;;;;;4932258;29;20195;-76
2022/01/02 22:57:58;;;;;;;4.13;2.67;;;9.70;1.00;;;;;;4935339;29;20191;-76
2022/01/02 23:00:34;;;;;;;3.27;2.20;;;9.60;1.00;;;;;;4935462;29;20612;-75
2022/01/02 23:03:07;;;;;;;4.32;2.50;;;9.60;1.00;;;;;;4934196;29;20475;-76
2022/01/02 23:05:34;;;;;;;4.43;2.30;;;9.70;1.00;;;;;;4934912;29;20199;-75
2022/01/02 23:08:01;;;;;;;5.53;2.43;;;9.60;1.00;;;;;;4935373;29;20218;-75
2022/01/02 23:10:26;;;;;;;4.00;2.27;;;9.80;99.90;;;;;;4935354;29;20187;-76
2022/01/02 23:12:52;;;;;;;7.67;2.93;;;9.80;99.90;;;;;;4935436;29;20206;-76
2022/01/02 23:15:18;;;;;;;5.47;2.20;;;9.70;1.00;;;;;;4934587;29;20206;-76
2022/01/02 23:17:48;;;;;;;4.80;2.53;;;9.80;99.90;;;;;;4934814;29;20175;-75
2022/01/02 23:20:14;;;;;;;6.63;2.50;;;9.80;99.90;;;;;;4935142;29;20198;-76
2022/01/02 23:22:40;;;;;;;5.80;2.70;;;9.80;99.90;;;;;;4934981;29;20183;-75
2022/01/02 23:25:06;;;;;;;4.00;2.20;;;9.90;99.90;;;;;;4934361;29;20199;-75
2022/01/02 23:27:33;;;;;;;3.93;2.10;;;9.80;1.00;;;;;;4934777;29;20183;-75
2022/01/02 23:29:59;;;;;;;4.20;2.13;;;9.80;1.00;;;;;;4934581;29;20660;-74
2022/01/02 23:32:25;;;;;;;8.87;2.47;;;9.90;1.00;;;;;;4934400;29;20514;-75
2022/01/02 23:34:51;;;;;;;4.40;2.50;;;9.90;1.00;;;;;;4934303;29;20687;-75
2022/01/02 23:37:16;;;;;;;5.03;2.40;;;9.80;1.00;;;;;;5027145;23;20298;-75
2022/01/02 23:39:43;;;;;;;4.70;2.20;;;9.90;1.00;;;;;;4934882;29;20179;-76
2022/01/02 23:42:10;;;;;;;7.00;2.20;;;10.10;99.90;;;;;;4934726;29;20183;-77
2022/01/02 23:44:37;;;;;;;7.07;2.97;;;10.10;99.90;;;;;;4934301;29;20199;-76
2022/01/02 23:47:07;;;;;;;5.43;2.30;;;10.20;99.90;;;;;;4934663;29;20229;-76
2022/01/02 23:49:44;;;;;;;3.83;2.20;;;10.40;99.90;;;;;;4934924;29;20222;-76
2022/01/02 23:52:15;;;;;;;4.00;2.07;;;10.50;1.00;;;;;;4934700;29;20187;-74
2022/01/02 23:54:46;;;;;;;6.23;2.10;;;10.60;1.00;;;;;;4934124;29;20263;-75
2022/01/02 23:57:13;;;;;;;3.70;2.00;;;10.80;1.00;;;;;;4934478;29;20231;-75
2022/01/02 23:59:40;;;;;;;3.27;1.90;;;10.70;1.00;;;;;;4934347;29;20196;-75
